sensor_id;sensor_type;location;lat;lon;timestamp;P1;durP1;ratioP1;P2;durP2;ratioP2
66607;SDS011;53462;39.616;8.824;2024-03-08T00:01:15;3.58;;;0.90;;
66607;SDS011;53462;39.616;8.824;2024-03-08T00:03:42;3.85;;;1.20;;
66607;SDS011;53462;39.616;8.824;2024-03-08T00:06:08;6.60;;;1.85;;
66607;SDS011;53462;39.616;8.824;2024-03-08T00:08:34;3.60;;;1.23;;
66607;SDS011;53462;39.616;8.824;2024-03-08T00:11:00;4.20;;;1.40;;
66607;SDS011;53462;39.616;8.824;2024-03-08T00:13:26;5.07;;;1.40;;
66607;SDS011;53462;39.616;8.824;2024-03-08T00:15:51;5.68;;;1.70;;
66607;SDS011;53462;39.616;8.824;2024-03-08T00:18:17;6.30;;;1.30;;
66607;SDS011;53462;39.616;8.824;2024-03-08T00:20:43;4.78;;;1.23;;
66607;SDS011;53462;39.616;8.824;2024-03-08T00:23:10;5.43;;;2.10;;
66607;SDS011;53462;39.616;8.824;2024-03-08T00:25:36;7.18;;;1.75;;
66607;SDS011;53462;39.616;8.824;2024-03-08T00:28:02;4.72;;;1.50;;
66607;SDS011;53462;39.616;8.824;2024-03-08T00:30:31;5.50;;;1.25;;
66607;SDS011;53462;39.616;8.824;2024-03-08T00:32:57;2.08;;;1.10;;
66607;SDS011;53462;39.616;8.824;2024-03-08T00:35:23;3.15;;;1.25;;
66607;SDS011;53462;39.616;8.824;2024-03-08T00:37:49;3.00;;;0.93;;
66607;SDS011;53462;39.616;8.824;2024-03-08T00:40:15;3.63;;;1.30;;
66607;SDS011;53462;39.616;8.824;2024-03-08T00:42:41;2.08;;;1.02;;
66607;SDS011;53462;39.616;8.824;2024-03-08T00:45:09;5.75;;;1.58;;
66607;SDS011;53462;39.616;8.824;2024-03-08T00:47:35;3.67;;;1.23;;
66607;SDS011;53462;39.616;8.824;2024-03-08T00:50:01;5.35;;;0.90;;
66607;SDS011;53462;39.616;8.824;2024-03-08T00:52:29;4.80;;;0.98;;
66607;SDS011;53462;39.616;8.824;2024-03-08T00:54:55;3.17;;;0.80;;
66607;SDS011;53462;39.616;8.824;2024-03-08T00:57:22;2.88;;;1.05;;
66607;SDS011;53462;39.616;8.824;2024-03-08T00:59:47;4.00;;;1.17;;
66607;SDS011;53462;39.616;8.824;2024-03-08T01:02:13;2.53;;;0.70;;
66607;SDS011;53462;39.616;8.824;2024-03-08T01:04:39;1.90;;;0.90;;
66607;SDS011;53462;39.616;8.824;2024-03-08T01:07:05;6.70;;;1.45;;
66607;SDS011;53462;39.616;8.824;2024-03-08T01:09:31;2.85;;;0.70;;
66607;SDS011;53462;39.616;8.824;2024-03-08T01:11:57;3.38;;;0.82;;
66607;SDS011;53462;39.616;8.824;2024-03-08T01:14:23;3.35;;;0.90;;
66607;SDS011;53462;39.616;8.824;2024-03-08T01:16:54;2.35;;;0.70;;
66607;SDS011;53462;39.616;8.824;2024-03-08T01:19:20;2.40;;;0.88;;
66607;SDS011;53462;39.616;8.824;2024-03-08T01:21:46;2.30;;;0.90;;
66607;SDS011;53462;39.616;8.824;2024-03-08T01:24:12;4.82;;;0.80;;
66607;SDS011;53462;39.616;8.824;2024-03-08T01:26:38;4.45;;;0.80;;
66607;SDS011;53462;39.616;8.824;2024-03-08T01:29:04;3.08;;;0.68;;
66607;SDS011;53462;39.616;8.824;2024-03-08T01:31:30;2.28;;;0.80;;
66607;SDS011;53462;39.616;8.824;2024-03-08T01:33:56;5.53;;;0.90;;
66607;SDS011;53462;39.616;8.824;2024-03-08T01:36:22;3.13;;;0.73;;
66607;SDS011;53462;39.616;8.824;2024-03-08T01:38:50;1.02;;;0.57;;
66607;SDS011;53462;39.616;8.824;2024-03-08T01:41:17;4.13;;;0.80;;
66607;SDS011;53462;39.616;8.824;2024-03-08T01:43:43;3.17;;;1.30;;
66607;SDS011;53462;39.616;8.824;2024-03-08T01:46:10;3.42;;;0.82;;
66607;SDS011;53462;39.616;8.824;2024-03-08T01:48:41;4.97;;;0.98;;
66607;SDS011;53462;39.616;8.824;2024-03-08T01:51:08;4.13;;;0.90;;
66607;SDS011;53462;39.616;8.824;2024-03-08T01:53:34;3.75;;;1.00;;
66607;SDS011;53462;39.616;8.824;2024-03-08T01:56:01;4.40;;;0.80;;
66607;SDS011;53462;39.616;8.824;2024-03-08T01:58:28;3.33;;;0.70;;
66607;SDS011;53462;39.616;8.824;2024-03-08T02:00:56;4.18;;;1.13;;
66607;SDS011;53462;39.616;8.824;2024-03-08T02:03:25;4.20;;;1.40;;
66607;SDS011;53462;39.616;8.824;2024-03-08T02:05:50;4.70;;;1.20;;
66607;SDS011;53462;39.616;8.824;2024-03-08T02:08:17;3.80;;;1.10;;
66607;SDS011;53462;39.616;8.824;2024-03-08T02:10:44;2.15;;;0.80;;
66607;SDS011;53462;39.616;8.824;2024-03-08T02:13:10;5.63;;;1.02;;
66607;SDS011;53462;39.616;8.824;2024-03-08T02:16:09;4.63;;;1.10;;
66607;SDS011;53462;39.616;8.824;2024-03-08T02:18:30;2.63;;;0.80;;
66607;SDS011;53462;39.616;8.824;2024-03-08T02:21:01;2.25;;;0.60;;
66607;SDS011;53462;39.616;8.824;2024-03-08T02:23:28;5.72;;;1.00;;
66607;SDS011;53462;39.616;8.824;2024-03-08T02:25:55;3.20;;;0.80;;
66607;SDS011;53462;39.616;8.824;2024-03-08T02:28:22;4.55;;;0.80;;
66607;SDS011;53462;39.616;8.824;2024-03-08T02:30:50;2.85;;;0.90;;
66607;SDS011;53462;39.616;8.824;2024-03-08T02:33:20;3.42;;;0.70;;
66607;SDS011;53462;39.616;8.824;2024-03-08T02:35:46;2.80;;;0.90;;
66607;SDS011;53462;39.616;8.824;2024-03-08T02:38:12;5.35;;;0.80;;
66607;SDS011;53462;39.616;8.824;2024-03-08T02:40:42;2.05;;;0.95;;
66607;SDS011;53462;39.616;8.824;2024-03-08T02:43:09;2.08;;;0.82;;
66607;SDS011;53462;39.616;8.824;2024-03-08T02:45:35;2.65;;;0.80;;
66607;SDS011;53462;39.616;8.824;2024-03-08T02:48:01;5.47;;;0.70;;
66607;SDS011;53462;39.616;8.824;2024-03-08T02:50:28;4.60;;;0.90;;
66607;SDS011;53462;39.616;8.824;2024-03-08T02:52:53;4.47;;;0.73;;
66607;SDS011;53462;39.616;8.824;2024-03-08T02:55:19;1.73;;;0.60;;
66607;SDS011;53462;39.616;8.824;2024-03-08T02:57:45;1.35;;;0.70;;
66607;SDS011;53462;39.616;8.824;2024-03-08T03:00:14;1.52;;;0.77;;
66607;SDS011;53462;39.616;8.824;2024-03-08T03:02:41;2.55;;;0.95;;
66607;SDS011;53462;39.616;8.824;2024-03-08T03:05:07;2.20;;;0.70;;
66607;SDS011;53462;39.616;8.824;2024-03-08T03:07:35;7.07;;;1.17;;
66607;SDS011;53462;39.616;8.824;2024-03-08T03:10:01;3.53;;;0.90;;
66607;SDS011;53462;39.616;8.824;2024-03-08T03:12:27;4.38;;;0.82;;
66607;SDS011;53462;39.616;8.824;2024-03-08T03:14:54;2.15;;;0.70;;
66607;SDS011;53462;39.616;8.824;2024-03-08T03:17:22;2.85;;;0.90;;
66607;SDS011;53462;39.616;8.824;2024-03-08T03:19:51;1.30;;;0.65;;
66607;SDS011;53462;39.616;8.824;2024-03-08T03:22:18;2.63;;;0.60;;
66607;SDS011;53462;39.616;8.824;2024-03-08T03:24:47;2.08;;;0.85;;
66607;SDS011;53462;39.616;8.824;2024-03-08T03:27:13;3.83;;;0.80;;
66607;SDS011;53462;39.616;8.824;2024-03-08T03:29:41;3.65;;;1.10;;
66607;SDS011;53462;39.616;8.824;2024-03-08T03:32:13;1.05;;;0.70;;
66607;SDS011;53462;39.616;8.824;2024-03-08T03:34:39;7.93;;;1.20;;
66607;SDS011;53462;39.616;8.824;2024-03-08T03:37:06;2.85;;;0.80;;
66607;SDS011;53462;39.616;8.824;2024-03-08T03:39:33;3.85;;;0.77;;
66607;SDS011;53462;39.616;8.824;2024-03-08T03:42:00;2.38;;;0.80;;
66607;SDS011;53462;39.616;8.824;2024-03-08T03:44:27;2.35;;;0.80;;
66607;SDS011;53462;39.616;8.824;2024-03-08T03:46:54;1.13;;;0.70;;
66607;SDS011;53462;39.616;8.824;2024-03-08T03:49:20;2.92;;;0.75;;
66607;SDS011;53462;39.616;8.824;2024-03-08T03:51:46;4.63;;;0.90;;
66607;SDS011;53462;39.616;8.824;2024-03-08T03:54:12;2.28;;;0.57;;
66607;SDS011;53462;39.616;8.824;2024-03-08T03:56:38;2.95;;;0.90;;
66607;SDS011;53462;39.616;8.824;2024-03-08T03:59:05;2.72;;;0.70;;
66607;SDS011;53462;39.616;8.824;2024-03-08T04:01:32;4.55;;;0.88;;
66607;SDS011;53462;39.616;8.824;2024-03-08T04:03:59;3.33;;;0.98;;
66607;SDS011;53462;39.616;8.824;2024-03-08T04:06:25;5.30;;;0.75;;
66607;SDS011;53462;39.616;8.824;2024-03-08T04:08:51;4.18;;;0.80;;
66607;SDS011;53462;39.616;8.824;2024-03-08T04:11:17;9.48;;;1.20;;
66607;SDS011;53462;39.616;8.824;2024-03-08T04:13:43;4.63;;;0.95;;
66607;SDS011;53462;39.616;8.824;2024-03-08T04:16:09;1.05;;;0.60;;
66607;SDS011;53462;39.616;8.824;2024-03-08T04:18:36;3.70;;;1.00;;
66607;SDS011;53462;39.616;8.824;2024-03-08T04:21:04;7.18;;;0.73;;
66607;SDS011;53462;39.616;8.824;2024-03-08T04:23:33;3.38;;;0.80;;
66607;SDS011;53462;39.616;8.824;2024-03-08T04:26:02;3.63;;;0.80;;
66607;SDS011;53462;39.616;8.824;2024-03-08T04:28:29;3.08;;;0.70;;
66607;SDS011;53462;39.616;8.824;2024-03-08T04:30:56;2.17;;;0.77;;
66607;SDS011;53462;39.616;8.824;2024-03-08T04:33:22;6.03;;;1.05;;
66607;SDS011;53462;39.616;8.824;2024-03-08T04:35:49;3.15;;;0.63;;
66607;SDS011;53462;39.616;8.824;2024-03-08T04:38:15;3.88;;;0.95;;
66607;SDS011;53462;39.616;8.824;2024-03-08T04:40:41;2.10;;;0.70;;
66607;SDS011;53462;39.616;8.824;2024-03-08T04:43:07;2.55;;;0.70;;
66607;SDS011;53462;39.616;8.824;2024-03-08T04:45:34;4.65;;;0.70;;
66607;SDS011;53462;39.616;8.824;2024-03-08T04:48:00;5.18;;;1.05;;
66607;SDS011;53462;39.616;8.824;2024-03-08T04:50:25;5.30;;;1.70;;
66607;SDS011;53462;39.616;8.824;2024-03-08T04:52:54;5.05;;;1.00;;
66607;SDS011;53462;39.616;8.824;2024-03-08T04:55:20;1.85;;;0.70;;
66607;SDS011;53462;39.616;8.824;2024-03-08T04:57:49;3.80;;;0.95;;
66607;SDS011;53462;39.616;8.824;2024-03-08T05:00:15;2.13;;;0.80;;
66607;SDS011;53462;39.616;8.824;2024-03-08T05:02:42;2.05;;;1.10;;
66607;SDS011;53462;39.616;8.824;2024-03-08T05:05:08;3.65;;;1.00;;
66607;SDS011;53462;39.616;8.824;2024-03-08T05:07:38;4.45;;;1.20;;
66607;SDS011;53462;39.616;8.824;2024-03-08T05:10:05;3.78;;;1.30;;
66607;SDS011;53462;39.616;8.824;2024-03-08T05:12:34;4.22;;;1.30;;
66607;SDS011;53462;39.616;8.824;2024-03-08T05:15:00;4.10;;;1.42;;
66607;SDS011;53462;39.616;8.824;2024-03-08T05:17:26;1.85;;;0.90;;
66607;SDS011;53462;39.616;8.824;2024-03-08T05:19:53;4.43;;;0.90;;
66607;SDS011;53462;39.616;8.824;2024-03-08T05:22:19;5.55;;;1.10;;
66607;SDS011;53462;39.616;8.824;2024-03-08T05:24:44;3.03;;;0.77;;
66607;SDS011;53462;39.616;8.824;2024-03-08T05:27:11;7.18;;;1.15;;
66607;SDS011;53462;39.616;8.824;2024-03-08T05:29:38;4.78;;;1.00;;
66607;SDS011;53462;39.616;8.824;2024-03-08T05:32:04;4.93;;;0.90;;
66607;SDS011;53462;39.616;8.824;2024-03-08T05:34:30;1.83;;;0.98;;
66607;SDS011;53462;39.616;8.824;2024-03-08T05:36:56;3.42;;;0.65;;
66607;SDS011;53462;39.616;8.824;2024-03-08T05:39:23;2.67;;;0.77;;
66607;SDS011;53462;39.616;8.824;2024-03-08T05:41:50;3.83;;;1.13;;
66607;SDS011;53462;39.616;8.824;2024-03-08T05:44:16;3.15;;;1.20;;
66607;SDS011;53462;39.616;8.824;2024-03-08T05:46:42;3.40;;;1.08;;
66607;SDS011;53462;39.616;8.824;2024-03-08T05:49:08;2.25;;;1.00;;
66607;SDS011;53462;39.616;8.824;2024-03-08T05:51:36;2.05;;;1.00;;
66607;SDS011;53462;39.616;8.824;2024-03-08T05:54:03;4.68;;;0.80;;
66607;SDS011;53462;39.616;8.824;2024-03-08T05:56:35;7.10;;;1.63;;
66607;SDS011;53462;39.616;8.824;2024-03-08T05:59:01;6.10;;;1.38;;
66607;SDS011;53462;39.616;8.824;2024-03-08T06:01:28;6.60;;;2.70;;
66607;SDS011;53462;39.616;8.824;2024-03-08T06:03:54;4.68;;;1.65;;
66607;SDS011;53462;39.616;8.824;2024-03-08T06:06:22;6.50;;;2.00;;
66607;SDS011;53462;39.616;8.824;2024-03-08T06:08:49;8.40;;;1.83;;
66607;SDS011;53462;39.616;8.824;2024-03-08T06:11:16;5.75;;;1.92;;
66607;SDS011;53462;39.616;8.824;2024-03-08T06:13:43;2.78;;;0.95;;
66607;SDS011;53462;39.616;8.824;2024-03-08T06:16:12;3.67;;;1.50;;
66607;SDS011;53462;39.616;8.824;2024-03-08T06:18:38;4.43;;;1.40;;
66607;SDS011;53462;39.616;8.824;2024-03-08T06:21:04;2.15;;;1.10;;
66607;SDS011;53462;39.616;8.824;2024-03-08T06:23:33;4.45;;;1.10;;
66607;SDS011;53462;39.616;8.824;2024-03-08T06:26:06;7.07;;;1.20;;
66607;SDS011;53462;39.616;8.824;2024-03-08T06:28:33;4.63;;;0.93;;
66607;SDS011;53462;39.616;8.824;2024-03-08T06:31:00;1.92;;;0.77;;
66607;SDS011;53462;39.616;8.824;2024-03-08T06:33:26;2.90;;;0.98;;
66607;SDS011;53462;39.616;8.824;2024-03-08T06:35:53;6.60;;;1.58;;
66607;SDS011;53462;39.616;8.824;2024-03-08T06:38:25;4.95;;;2.60;;
66607;SDS011;53462;39.616;8.824;2024-03-08T06:40:52;11.73;;;5.68;;
66607;SDS011;53462;39.616;8.824;2024-03-08T06:43:19;10.98;;;5.80;;
66607;SDS011;53462;39.616;8.824;2024-03-08T06:45:45;12.88;;;5.38;;
66607;SDS011;53462;39.616;8.824;2024-03-08T06:48:16;11.65;;;4.80;;
66607;SDS011;53462;39.616;8.824;2024-03-08T06:50:43;5.88;;;3.13;;
66607;SDS011;53462;39.616;8.824;2024-03-08T06:53:10;11.38;;;4.75;;
66607;SDS011;53462;39.616;8.824;2024-03-08T06:55:39;13.90;;;7.10;;
66607;SDS011;53462;39.616;8.824;2024-03-08T06:58:05;19.83;;;8.57;;
66607;SDS011;53462;39.616;8.824;2024-03-08T07:00:36;11.63;;;5.75;;
66607;SDS011;53462;39.616;8.824;2024-03-08T07:03:02;4.82;;;2.17;;
66607;SDS011;53462;39.616;8.824;2024-03-08T07:05:29;6.00;;;2.22;;
66607;SDS011;53462;39.616;8.824;2024-03-08T07:07:55;6.60;;;2.30;;
66607;SDS011;53462;39.616;8.824;2024-03-08T07:10:22;5.53;;;1.63;;
66607;SDS011;53462;39.616;8.824;2024-03-08T07:12:51;6.10;;;1.70;;
66607;SDS011;53462;39.616;8.824;2024-03-08T07:15:20;4.07;;;2.05;;
66607;SDS011;53462;39.616;8.824;2024-03-08T07:17:46;4.22;;;1.73;;
66607;SDS011;53462;39.616;8.824;2024-03-08T07:20:13;4.75;;;1.20;;
66607;SDS011;53462;39.616;8.824;2024-03-08T07:22:41;9.13;;;3.08;;
66607;SDS011;53462;39.616;8.824;2024-03-08T07:25:08;5.40;;;2.70;;
66607;SDS011;53462;39.616;8.824;2024-03-08T07:27:49;4.50;;;1.65;;
66607;SDS011;53462;39.616;8.824;2024-03-08T07:30:23;2.42;;;1.40;;
66607;SDS011;53462;39.616;8.824;2024-03-08T07:33:08;6.25;;;2.08;;
66607;SDS011;53462;39.616;8.824;2024-03-08T07:35:40;7.60;;;3.58;;
66607;SDS011;53462;39.616;8.824;2024-03-08T07:38:07;5.82;;;2.35;;
66607;SDS011;53462;39.616;8.824;2024-03-08T07:40:35;6.38;;;1.90;;
66607;SDS011;53462;39.616;8.824;2024-03-08T07:43:04;10.13;;;5.80;;
66607;SDS011;53462;39.616;8.824;2024-03-08T07:45:30;8.68;;;3.83;;
66607;SDS011;53462;39.616;8.824;2024-03-08T07:47:56;3.60;;;1.50;;
66607;SDS011;53462;39.616;8.824;2024-03-08T07:50:22;3.92;;;1.60;;
66607;SDS011;53462;39.616;8.824;2024-03-08T07:52:48;8.25;;;3.15;;
66607;SDS011;53462;39.616;8.824;2024-03-08T07:55:14;2.80;;;1.25;;
66607;SDS011;53462;39.616;8.824;2024-03-08T07:57:40;5.13;;;1.92;;
66607;SDS011;53462;39.616;8.824;2024-03-08T08:00:08;6.18;;;1.52;;
66607;SDS011;53462;39.616;8.824;2024-03-08T08:02:35;14.25;;;4.70;;
66607;SDS011;53462;39.616;8.824;2024-03-08T08:05:01;8.63;;;2.58;;
66607;SDS011;53462;39.616;8.824;2024-03-08T08:07:27;18.25;;;5.45;;
66607;SDS011;53462;39.616;8.824;2024-03-08T08:09:53;16.48;;;5.18;;
66607;SDS011;53462;39.616;8.824;2024-03-08T08:12:19;9.23;;;4.03;;
66607;SDS011;53462;39.616;8.824;2024-03-08T08:14:46;7.10;;;3.67;;
66607;SDS011;53462;39.616;8.824;2024-03-08T08:17:12;9.48;;;3.50;;
66607;SDS011;53462;39.616;8.824;2024-03-08T08:19:38;9.07;;;3.50;;
66607;SDS011;53462;39.616;8.824;2024-03-08T08:22:06;8.65;;;3.10;;
66607;SDS011;53462;39.616;8.824;2024-03-08T08:24:34;4.88;;;2.10;;
66607;SDS011;53462;39.616;8.824;2024-03-08T08:27:02;6.30;;;1.75;;
66607;SDS011;53462;39.616;8.824;2024-03-08T08:29:28;5.85;;;1.58;;
66607;SDS011;53462;39.616;8.824;2024-03-08T08:31:57;4.93;;;1.42;;
66607;SDS011;53462;39.616;8.824;2024-03-08T08:34:24;4.13;;;1.60;;
66607;SDS011;53462;39.616;8.824;2024-03-08T08:36:51;4.68;;;1.67;;
66607;SDS011;53462;39.616;8.824;2024-03-08T08:39:18;4.50;;;1.13;;
66607;SDS011;53462;39.616;8.824;2024-03-08T08:41:44;5.05;;;1.40;;
66607;SDS011;53462;39.616;8.824;2024-03-08T08:44:10;1.60;;;0.80;;
66607;SDS011;53462;39.616;8.824;2024-03-08T08:46:37;5.22;;;1.35;;
66607;SDS011;53462;39.616;8.824;2024-03-08T08:49:04;2.83;;;1.38;;
66607;SDS011;53462;39.616;8.824;2024-03-08T08:51:31;5.20;;;1.00;;
66607;SDS011;53462;39.616;8.824;2024-03-08T08:54:00;3.35;;;0.93;;
66607;SDS011;53462;39.616;8.824;2024-03-08T08:56:26;2.80;;;0.90;;
66607;SDS011;53462;39.616;8.824;2024-03-08T08:58:53;3.63;;;1.20;;
66607;SDS011;53462;39.616;8.824;2024-03-08T09:01:20;8.10;;;2.15;;
66607;SDS011;53462;39.616;8.824;2024-03-08T09:03:46;6.05;;;1.88;;
66607;SDS011;53462;39.616;8.824;2024-03-08T09:06:12;5.00;;;1.73;;
66607;SDS011;53462;39.616;8.824;2024-03-08T09:08:38;3.97;;;1.33;;
66607;SDS011;53462;39.616;8.824;2024-03-08T09:11:05;4.40;;;1.30;;
66607;SDS011;53462;39.616;8.824;2024-03-08T09:13:31;5.05;;;1.00;;
66607;SDS011;53462;39.616;8.824;2024-03-08T09:15:59;4.30;;;1.10;;
66607;SDS011;53462;39.616;8.824;2024-03-08T09:18:25;3.35;;;0.80;;
66607;SDS011;53462;39.616;8.824;2024-03-08T09:20:51;3.78;;;1.00;;
66607;SDS011;53462;39.616;8.824;2024-03-08T09:23:22;3.28;;;1.00;;
66607;SDS011;53462;39.616;8.824;2024-03-08T09:25:48;4.05;;;1.23;;
66607;SDS011;53462;39.616;8.824;2024-03-08T09:28:14;6.70;;;1.42;;
66607;SDS011;53462;39.616;8.824;2024-03-08T09:30:41;6.60;;;1.00;;
66607;SDS011;53462;39.616;8.824;2024-03-08T09:33:07;6.35;;;1.10;;
66607;SDS011;53462;39.616;8.824;2024-03-08T09:35:33;3.38;;;1.10;;
66607;SDS011;53462;39.616;8.824;2024-03-08T09:37:59;7.35;;;1.10;;
66607;SDS011;53462;39.616;8.824;2024-03-08T09:40:24;1.83;;;0.70;;
66607;SDS011;53462;39.616;8.824;2024-03-08T09:42:51;3.97;;;1.02;;
66607;SDS011;53462;39.616;8.824;2024-03-08T09:45:17;3.85;;;1.00;;
66607;SDS011;53462;39.616;8.824;2024-03-08T09:47:47;3.03;;;0.90;;
66607;SDS011;53462;39.616;8.824;2024-03-08T09:50:14;2.53;;;1.17;;
66607;SDS011;53462;39.616;8.824;2024-03-08T09:52:41;5.25;;;1.40;;
66607;SDS011;53462;39.616;8.824;2024-03-08T09:55:11;4.70;;;1.50;;
66607;SDS011;53462;39.616;8.824;2024-03-08T09:57:38;3.78;;;1.58;;
66607;SDS011;53462;39.616;8.824;2024-03-08T10:00:05;5.55;;;1.95;;
66607;SDS011;53462;39.616;8.824;2024-03-08T10:02:49;5.00;;;1.60;;
66607;SDS011;53462;39.616;8.824;2024-03-08T10:05:19;5.32;;;1.10;;
66607;SDS011;53462;39.616;8.824;2024-03-08T10:07:47;4.20;;;1.50;;
66607;SDS011;53462;39.616;8.824;2024-03-08T10:10:13;6.05;;;2.20;;
66607;SDS011;53462;39.616;8.824;2024-03-08T10:12:39;4.43;;;2.20;;
66607;SDS011;53462;39.616;8.824;2024-03-08T10:15:06;8.02;;;2.20;;
66607;SDS011;53462;39.616;8.824;2024-03-08T10:17:36;5.90;;;2.20;;
66607;SDS011;53462;39.616;8.824;2024-03-08T10:20:02;3.97;;;1.40;;
66607;SDS011;53462;39.616;8.824;2024-03-08T10:22:29;10.27;;;2.72;;
66607;SDS011;53462;39.616;8.824;2024-03-08T10:24:56;7.20;;;1.88;;
66607;SDS011;53462;39.616;8.824;2024-03-08T10:27:23;4.32;;;1.90;;
66607;SDS011;53462;39.616;8.824;2024-03-08T10:29:52;5.55;;;1.48;;
66607;SDS011;53462;39.616;8.824;2024-03-08T10:32:18;3.95;;;1.60;;
66607;SDS011;53462;39.616;8.824;2024-03-08T10:34:44;6.78;;;1.85;;
66607;SDS011;53462;39.616;8.824;2024-03-08T10:37:12;5.20;;;1.92;;
66607;SDS011;53462;39.616;8.824;2024-03-08T10:39:44;4.88;;;2.13;;
66607;SDS011;53462;39.616;8.824;2024-03-08T10:42:18;5.47;;;1.83;;
66607;SDS011;53462;39.616;8.824;2024-03-08T10:45:04;5.55;;;2.00;;
66607;SDS011;53462;39.616;8.824;2024-03-08T10:47:38;6.47;;;2.25;;
66607;SDS011;53462;39.616;8.824;2024-03-08T10:50:19;6.00;;;2.20;;
66607;SDS011;53462;39.616;8.824;2024-03-08T10:52:50;5.88;;;2.45;;
66607;SDS011;53462;39.616;8.824;2024-03-08T10:55:19;3.17;;;1.83;;
66607;SDS011;53462;39.616;8.824;2024-03-08T10:57:46;8.73;;;2.30;;
66607;SDS011;53462;39.616;8.824;2024-03-08T11:00:13;10.77;;;3.30;;
66607;SDS011;53462;39.616;8.824;2024-03-08T11:02:45;4.65;;;1.73;;
66607;SDS011;53462;39.616;8.824;2024-03-08T11:05:30;6.25;;;2.35;;
66607;SDS011;53462;39.616;8.824;2024-03-08T11:08:01;3.28;;;1.80;;
66607;SDS011;53462;39.616;8.824;2024-03-08T11:10:29;6.70;;;2.70;;
66607;SDS011;53462;39.616;8.824;2024-03-08T11:12:55;6.55;;;2.85;;
66607;SDS011;53462;39.616;8.824;2024-03-08T11:15:22;3.90;;;2.42;;
66607;SDS011;53462;39.616;8.824;2024-03-08T11:17:50;4.97;;;2.40;;
66607;SDS011;53462;39.616;8.824;2024-03-08T11:20:19;6.78;;;2.60;;
66607;SDS011;53462;39.616;8.824;2024-03-08T11:22:49;8.00;;;3.20;;
66607;SDS011;53462;39.616;8.824;2024-03-08T11:28:18;4.22;;;2.22;;
66607;SDS011;53462;39.616;8.824;2024-03-08T11:31:32;7.57;;;2.88;;
66607;SDS011;53462;39.616;8.824;2024-03-08T11:33:36;7.38;;;2.38;;
66607;SDS011;53462;39.616;8.824;2024-03-08T11:36:12;7.75;;;2.28;;
66607;SDS011;53462;39.616;8.824;2024-03-08T11:38:47;7.35;;;2.00;;
66607;SDS011;53462;39.616;8.824;2024-03-08T11:41:17;4.80;;;2.50;;
66607;SDS011;53462;39.616;8.824;2024-03-08T11:43:48;9.60;;;3.13;;
66607;SDS011;53462;39.616;8.824;2024-03-08T11:46:16;6.32;;;1.55;;
66607;SDS011;53462;39.616;8.824;2024-03-08T11:48:43;6.78;;;1.92;;
66607;SDS011;53462;39.616;8.824;2024-03-08T11:51:13;5.63;;;2.38;;
66607;SDS011;53462;39.616;8.824;2024-03-08T11:53:40;9.30;;;3.03;;
66607;SDS011;53462;39.616;8.824;2024-03-08T11:56:10;8.45;;;2.42;;
66607;SDS011;53462;39.616;8.824;2024-03-08T11:58:38;9.13;;;2.45;;
66607;SDS011;53462;39.616;8.824;2024-03-08T12:01:05;7.13;;;2.22;;
66607;SDS011;53462;39.616;8.824;2024-03-08T12:03:32;7.38;;;3.30;;
66607;SDS011;53462;39.616;8.824;2024-03-08T12:06:03;6.75;;;3.80;;
66607;SDS011;53462;39.616;8.824;2024-03-08T12:08:32;8.30;;;2.22;;
66607;SDS011;53462;39.616;8.824;2024-03-08T12:10:58;12.95;;;2.78;;
66607;SDS011;53462;39.616;8.824;2024-03-08T12:13:28;10.23;;;2.90;;
66607;SDS011;53462;39.616;8.824;2024-03-08T12:16:00;5.20;;;2.25;;
66607;SDS011;53462;39.616;8.824;2024-03-08T12:18:34;12.27;;;3.00;;
66607;SDS011;53462;39.616;8.824;2024-03-08T12:21:09;7.32;;;3.33;;
66607;SDS011;53462;39.616;8.824;2024-03-08T12:23:42;18.02;;;9.57;;
66607;SDS011;53462;39.616;8.824;2024-03-08T12:26:16;8.02;;;3.80;;
66607;SDS011;53462;39.616;8.824;2024-03-08T12:28:43;6.63;;;3.08;;
66607;SDS011;53462;39.616;8.824;2024-03-08T12:31:13;8.93;;;3.47;;
66607;SDS011;53462;39.616;8.824;2024-03-08T12:33:51;8.80;;;2.55;;
66607;SDS011;53462;39.616;8.824;2024-03-08T12:36:19;10.65;;;3.17;;
66607;SDS011;53462;39.616;8.824;2024-03-08T12:38:46;8.85;;;3.00;;
66607;SDS011;53462;39.616;8.824;2024-03-08T12:41:15;9.63;;;3.33;;
66607;SDS011;53462;39.616;8.824;2024-03-08T12:43:44;10.60;;;2.95;;
66607;SDS011;53462;39.616;8.824;2024-03-08T12:46:16;9.30;;;2.63;;
66607;SDS011;53462;39.616;8.824;2024-03-08T12:48:43;7.45;;;2.70;;
66607;SDS011;53462;39.616;8.824;2024-03-08T12:51:15;10.05;;;3.75;;
66607;SDS011;53462;39.616;8.824;2024-03-08T12:53:43;7.20;;;2.40;;
66607;SDS011;53462;39.616;8.824;2024-03-08T12:56:09;6.90;;;3.00;;
66607;SDS011;53462;39.616;8.824;2024-03-08T12:58:36;12.98;;;3.53;;
66607;SDS011;53462;39.616;8.824;2024-03-08T13:01:02;10.20;;;2.90;;
66607;SDS011;53462;39.616;8.824;2024-03-08T13:03:35;10.23;;;3.10;;
66607;SDS011;53462;39.616;8.824;2024-03-08T13:06:05;9.38;;;3.45;;
66607;SDS011;53462;39.616;8.824;2024-03-08T13:08:37;5.75;;;2.72;;
66607;SDS011;53462;39.616;8.824;2024-03-08T13:11:10;11.63;;;4.70;;
66607;SDS011;53462;39.616;8.824;2024-03-08T13:13:42;7.70;;;3.85;;
66607;SDS011;53462;39.616;8.824;2024-03-08T13:16:09;18.08;;;8.15;;
66607;SDS011;53462;39.616;8.824;2024-03-08T13:18:37;19.90;;;8.65;;
66607;SDS011;53462;39.616;8.824;2024-03-08T13:21:03;13.77;;;6.43;;
66607;SDS011;53462;39.616;8.824;2024-03-08T13:23:33;11.10;;;3.88;;
66607;SDS011;53462;39.616;8.824;2024-03-08T13:26:08;13.40;;;4.65;;
66607;SDS011;53462;39.616;8.824;2024-03-08T13:28:46;6.90;;;2.97;;
66607;SDS011;53462;39.616;8.824;2024-03-08T13:31:21;10.55;;;3.65;;
66607;SDS011;53462;39.616;8.824;2024-03-08T13:33:47;5.13;;;2.65;;
66607;SDS011;53462;39.616;8.824;2024-03-08T13:36:14;12.07;;;3.75;;
66607;SDS011;53462;39.616;8.824;2024-03-08T13:38:41;8.35;;;3.40;;
66607;SDS011;53462;39.616;8.824;2024-03-08T13:41:11;11.73;;;4.57;;
66607;SDS011;53462;39.616;8.824;2024-03-08T13:43:42;10.40;;;4.03;;
66607;SDS011;53462;39.616;8.824;2024-03-08T13:46:10;13.48;;;4.07;;
66607;SDS011;53462;39.616;8.824;2024-03-08T13:48:36;14.35;;;3.92;;
66607;SDS011;53462;39.616;8.824;2024-03-08T13:51:03;9.38;;;4.22;;
66607;SDS011;53462;39.616;8.824;2024-03-08T13:53:31;11.93;;;4.80;;
66607;SDS011;53462;39.616;8.824;2024-03-08T13:56:03;11.98;;;4.38;;
66607;SDS011;53462;39.616;8.824;2024-03-08T13:58:30;12.82;;;4.10;;
66607;SDS011;53462;39.616;8.824;2024-03-08T14:00:57;10.85;;;4.95;;
66607;SDS011;53462;39.616;8.824;2024-03-08T14:03:23;12.30;;;5.72;;
66607;SDS011;53462;39.616;8.824;2024-03-08T14:05:49;10.80;;;4.93;;
66607;SDS011;53462;39.616;8.824;2024-03-08T14:08:15;15.60;;;7.45;;
66607;SDS011;53462;39.616;8.824;2024-03-08T14:10:42;13.07;;;5.50;;
66607;SDS011;53462;39.616;8.824;2024-03-08T14:13:12;19.45;;;9.50;;
66607;SDS011;53462;39.616;8.824;2024-03-08T14:15:40;14.65;;;6.35;;
66607;SDS011;53462;39.616;8.824;2024-03-08T14:18:07;13.60;;;6.93;;
66607;SDS011;53462;39.616;8.824;2024-03-08T14:20:33;15.15;;;7.05;;
66607;SDS011;53462;39.616;8.824;2024-03-08T14:22:59;17.48;;;8.10;;
66607;SDS011;53462;39.616;8.824;2024-03-08T14:25:25;18.35;;;5.63;;
66607;SDS011;53462;39.616;8.824;2024-03-08T14:27:52;12.18;;;5.47;;
66607;SDS011;53462;39.616;8.824;2024-03-08T14:30:19;15.82;;;6.85;;
66607;SDS011;53462;39.616;8.824;2024-03-08T14:33:00;13.63;;;6.50;;
66607;SDS011;53462;39.616;8.824;2024-03-08T14:35:31;19.25;;;7.13;;
66607;SDS011;53462;39.616;8.824;2024-03-08T14:37:57;10.63;;;6.13;;
66607;SDS011;53462;39.616;8.824;2024-03-08T14:40:23;14.48;;;6.95;;
66607;SDS011;53462;39.616;8.824;2024-03-08T14:42:51;15.77;;;6.68;;
66607;SDS011;53462;39.616;8.824;2024-03-08T14:45:17;15.20;;;7.25;;
66607;SDS011;53462;39.616;8.824;2024-03-08T14:47:46;14.00;;;6.90;;
66607;SDS011;53462;39.616;8.824;2024-03-08T14:50:19;19.05;;;6.88;;
66607;SDS011;53462;39.616;8.824;2024-03-08T14:52:46;14.60;;;7.10;;